Weather reports worldwide

Advertisment
Cardiff, Bute Park, United Kingdom (99160): temperature & dewpoint: 12.08.2019 23:00:00 - 18.08.2019 23:00:00 (BST)Cardiff, Bute Park, United Kingdom (99160): temperature -20cm & temperature -100cm: 12.08.2019 23:00:00 - 18.08.2019 23:00:00 (BST)Cardiff, Bute Park, United Kingdom (99160): precipitation: 12.08.2019 23:00:00 - 18.08.2019 23:00:00 (BST)
Date & Time tt [°C] td [°C] tt -20cm [°C] tt -100cm [°C] rr [mm]
18.08.2019 23:00:00 15,1 11,2 - - 0,0
18.08.2019 22:00:00 15,0 11,8 - - 0,0
18.08.2019 21:00:00 15,5 11,3 - - 0,0
18.08.2019 20:00:00 16,0 10,6 - - 0,0
18.08.2019 19:00:00 17,0 11,6 - - 0,0
18.08.2019 18:00:00 17,2 11,6 - - 0,2
18.08.2019 17:00:00 17,7 11,1 - - 0,0
18.08.2019 16:00:00 17,9 11,6 - - 0,0
18.08.2019 15:00:00 17,7 12,0 - - 0,0
18.08.2019 14:00:00 19,0 12,0 - - 0,0
18.08.2019 13:00:00 18,2 11,6 - - 0,0
18.08.2019 12:00:00 17,5 11,8 - - 0,0
18.08.2019 11:00:00 16,1 13,0 - - 0,2
18.08.2019 10:00:00 14,1 13,0 18,9 18,0 0,8
18.08.2019 09:00:00 12,8 11,7 - - 6,2
18.08.2019 08:00:00 15,4 13,5 - - 0,0
18.08.2019 07:00:00 14,2 12,6 - - 0,2
18.08.2019 06:00:00 14,4 12,3 - - 0,0
18.08.2019 05:00:00 15,1 12,4 - - 0,0
18.08.2019 04:00:00 15,2 12,4 - - 0,0
18.08.2019 03:00:00 15,0 12,1 - - 0,0
18.08.2019 02:00:00 15,2 11,7 - - 0,0
18.08.2019 01:00:00 15,5 11,4 - - 0,0
18.08.2019 00:00:00 15,5 11,9 - - 0,0
17.08.2019 23:00:00 15,2 12,5 - - 0,0
17.08.2019 22:00:00 14,7 12,5 - - 0,2
17.08.2019 21:00:00 15,1 12,6 - - 0,0
17.08.2019 20:00:00 16,9 12,1 - - 0,0
17.08.2019 19:00:00 17,7 10,9 - - 0,0
17.08.2019 18:00:00 18,5 10,8 - - 0,0
17.08.2019 17:00:00 19,1 11,2 - - 0,0
17.08.2019 16:00:00 17,4 10,7 - - 0,0
17.08.2019 15:00:00 19,6 10,5 - - 0,0
17.08.2019 14:00:00 20,0 11,7 - - 0,0
17.08.2019 13:00:00 20,3 12,6 - - 0,0
17.08.2019 12:00:00 19,6 11,8 - - 0,0
17.08.2019 11:00:00 18,6 12,1 - - 0,0
17.08.2019 10:00:00 18,8 13,0 18,7 18,2 0,0
17.08.2019 09:00:00 17,6 13,9 - - 0,0
17.08.2019 08:00:00 16,4 14,5 - - 0,2
17.08.2019 07:00:00 16,3 14,0 - - 0,0
17.08.2019 06:00:00 16,2 14,1 - - 0,0
17.08.2019 05:00:00 16,1 14,0 - - 0,0
17.08.2019 04:00:00 15,5 14,0 - - 0,0
17.08.2019 03:00:00 14,9 13,8 - - 0,0
17.08.2019 02:00:00 14,9 14,1 - - 0,0
17.08.2019 01:00:00 14,2 13,3 - - 0,0
17.08.2019 00:00:00 15,8 14,0 - - 0,0
16.08.2019 23:00:00 17,4 16,4 - - 0,2
16.08.2019 22:00:00 17,6 17,0 - - 0,0
16.08.2019 21:00:00 17,5 17,1 - - 1,6
16.08.2019 20:00:00 17,3 16,9 - - 3,6
16.08.2019 19:00:00 17,2 16,6 - - 4,0
16.08.2019 18:00:00 17,4 16,7 - - 3,2
16.08.2019 17:00:00 17,2 16,5 - - 2,8
16.08.2019 16:00:00 16,7 16,1 - - 3,6
16.08.2019 15:00:00 16,9 15,8 - - 2,8
16.08.2019 14:00:00 16,7 15,7 - - 2,2
16.08.2019 13:00:00 16,7 15,4 - - 0,6
16.08.2019 12:00:00 16,5 14,8 - - 0,0
16.08.2019 11:00:00 16,2 14,3 - - 0,2
16.08.2019 10:00:00 16,3 14,0 19,2 18,2 0,2
16.08.2019 09:00:00 16,8 13,3 - - 0,0
16.08.2019 08:00:00 15,9 13,8 - - 0,2
16.08.2019 07:00:00 16,2 13,8 - - 0,0
16.08.2019 06:00:00 16,4 13,1 - - 0,0
16.08.2019 05:00:00 16,4 12,6 - - 0,0
16.08.2019 04:00:00 16,4 13,2 - - 0,0
16.08.2019 03:00:00 15,9 13,8 - - 0,0
16.08.2019 02:00:00 15,1 14,2 - - 0,0
16.08.2019 01:00:00 14,3 13,1 - - 0,0
16.08.2019 00:00:00 15,6 14,0 - - 0,0
15.08.2019 23:00:00 16,3 14,5 - - 0,0
15.08.2019 22:00:00 15,9 14,3 - - 0,0
15.08.2019 21:00:00 16,5 14,1 - - 0,0
15.08.2019 20:00:00 17,4 13,6 - - 0,0
15.08.2019 19:00:00 18,2 13,3 - - 0,0
15.08.2019 18:00:00 18,9 13,0 - - 0,0
15.08.2019 17:00:00 18,6 12,8 - - 0,0
15.08.2019 16:00:00 19,2 12,8 - - 0,0
15.08.2019 15:00:00 20,8 11,4 - - 0,0
15.08.2019 14:00:00 20,2 11,5 - - 0,0
15.08.2019 13:00:00 18,5 10,5 - - 0,0
15.08.2019 12:00:00 19,4 11,8 - - 0,0
15.08.2019 11:00:00 19,0 12,4 - - 0,0
15.08.2019 10:00:00 16,8 12,3 19,0 18,2 0,0
15.08.2019 09:00:00 17,1 12,4 - - 0,0
15.08.2019 08:00:00 15,9 12,5 - - 0,0
15.08.2019 07:00:00 15,8 12,7 - - 0,0
15.08.2019 06:00:00 15,7 13,8 - - 0,0
15.08.2019 05:00:00 15,7 14,4 - - 0,2
15.08.2019 04:00:00 15,9 14,7 - - 0,4
15.08.2019 03:00:00 16,3 14,6 - - 0,0
15.08.2019 02:00:00 16,6 14,6 - - 0,0
15.08.2019 01:00:00 16,7 14,5 - - 0,0
15.08.2019 00:00:00 16,7 14,7 - - 0,0
14.08.2019 23:00:00 17,2 15,7 - - 0,0
14.08.2019 22:00:00 17,4 16,3 - - 0,0
14.08.2019 21:00:00 17,4 16,4 - - 0,2
14.08.2019 20:00:00 17,7 16,4 - - 0,0
14.08.2019 19:00:00 18,0 16,3 - - 0,0
14.08.2019 18:00:00 18,0 16,7 - - 0,0
14.08.2019 17:00:00 19,1 16,6 - - 0,0
14.08.2019 16:00:00 19,1 17,1 - - 0,0
14.08.2019 15:00:00 18,0 16,7 - - 0,6
14.08.2019 14:00:00 18,3 16,8 - - 0,0
14.08.2019 13:00:00 18,0 16,6 - - 0,0
14.08.2019 12:00:00 17,3 16,5 - - 0,8
14.08.2019 11:00:00 16,5 16,2 - - 2,0
14.08.2019 10:00:00 15,3 14,9 19,2 18,2 3,4
14.08.2019 09:00:00 15,1 14,6 - - 3,0
14.08.2019 08:00:00 14,3 13,7 - - 2,8
14.08.2019 07:00:00 14,2 13,3 - - 4,0
14.08.2019 06:00:00 15,1 14,4 - - 1,6
14.08.2019 05:00:00 15,3 13,5 - - 0,6
14.08.2019 04:00:00 15,7 13,2 - - 0,0
14.08.2019 03:00:00 15,5 13,2 - - 0,0
14.08.2019 02:00:00 15,3 12,9 - - 0,0
14.08.2019 01:00:00 15,2 12,6 - - 0,0
14.08.2019 00:00:00 15,3 12,7 - - 0,0
13.08.2019 23:00:00 14,9 12,6 - - 0,0
13.08.2019 22:00:00 14,9 12,1 - - 0,0
13.08.2019 21:00:00 15,9 11,8 - - 0,0
13.08.2019 20:00:00 16,7 11,9 - - 0,0
13.08.2019 19:00:00 17,6 11,4 - - 0,0
13.08.2019 18:00:00 18,2 10,2 - - 0,0
13.08.2019 17:00:00 19,4 9,5 - - 0,0
13.08.2019 16:00:00 19,9 9,1 - - 0,0
13.08.2019 15:00:00 20,1 9,7 - - 0,0
13.08.2019 14:00:00 19,6 9,3 - - 0,0
13.08.2019 13:00:00 19,2 10,3 - - 0,0
13.08.2019 12:00:00 18,4 10,8 - - 0,0
13.08.2019 11:00:00 17,6 11,0 - - 0,0
13.08.2019 10:00:00 15,9 12,7 19,0 18,4 0,0
13.08.2019 09:00:00 13,1 13,0 - - 0,0
13.08.2019 08:00:00 10,6 10,6 - - 0,0
13.08.2019 07:00:00 9,3 9,2 - - 0,0
13.08.2019 06:00:00 9,3 9,2 - - 0,0
13.08.2019 05:00:00 9,6 9,5 - - 0,0
13.08.2019 04:00:00 9,4 9,1 - - 0,2
13.08.2019 03:00:00 9,6 9,3 - - 0,0
13.08.2019 02:00:00 10,6 10,2 - - 0,0
13.08.2019 01:00:00 11,8 11,4 - - 0,0
13.08.2019 00:00:00 11,9 11,4 - - 0,0
12.08.2019 23:00:00 12,0 11,2 - - 0,2

tt = temperature
td = dewpoint
tt -20cm = temperature -20cm
tt -100cm = temperature -100cm
rr = precipitation

Next stations